Time;durP1;ratioP1;P1;durP2;ratioP2;P2;SDS_P1;SDS_P2;PMS_P1;PMS_P2;Temp;Humidity;BMP_temperature;BMP_pressure;BME280_temperature;BME280_humidity;BME280_pressure;Samples;Min_cycle;Max_cycle;Signal;HPM_P1;HPM_P2
2023/05/02 00:00:35;;;;;;;6.90;3.00;;;;;;;;;;110293;1258;22464;-74
2023/05/02 00:03:16;;;;;;;9.80;2.80;;;;;;;;;;110140;1279;22179;-74
2023/05/02 00:05:42;;;;;;;8.60;3.00;;;;;;;;;;110114;1279;22840;-74
2023/05/02 00:08:09;;;;;;;6.60;2.80;;;;;;;;;;110131;1279;22082;-75
2023/05/02 00:10:36;;;;;;;7.40;2.70;;;;;;;;;;110226;1256;22213;-74
2023/05/02 00:13:03;;;;;;;7.70;2.80;;;;;;;;;;110106;1279;22346;-74
2023/05/02 00:15:30;;;;;;;6.20;2.90;;;;;;;;;;110146;1279;22107;-74
2023/05/02 00:17:57;;;;;;;9.80;3.20;;;;;;;;;;110171;1279;22114;-74
2023/05/02 00:20:23;;;;;;;8.30;2.80;;;;;;;;;;110202;1256;23148;-74
2023/05/02 00:22:50;;;;;;;6.00;2.30;;;;;;;;;;110090;1279;22891;-74
2023/05/02 00:25:18;;;;;;;7.60;2.90;;;;;;;;;;110077;1279;22094;-75
2023/05/02 00:27:46;;;;;;;7.40;2.60;;;;;;;;;;110218;1279;22101;-74
2023/05/02 00:30:13;;;;;;;5.40;2.40;;;;;;;;;;110098;1280;22105;-74
2023/05/02 00:32:40;;;;;;;6.30;2.70;;;;;;;;;;110442;1260;22812;-75
2023/05/02 00:35:08;;;;;;;7.20;2.90;;;;;;;;;;110255;1279;22118;-74
2023/05/02 00:37:36;;;;;;;7.20;2.90;;;;;;;;;;110151;1279;22162;-74
2023/05/02 00:40:04;;;;;;;6.10;2.80;;;;;;;;;;110158;1279;22127;-74
2023/05/02 00:42:35;;;;;;;6.10;2.80;;;;;;;;;;110251;1258;22102;-75
2023/05/02 00:45:05;;;;;;;5.80;2.40;;;;;;;;;;110090;1280;22823;-74
2023/05/02 00:47:33;;;;;;;6.40;2.70;;;;;;;;;;110070;1280;22098;-74
2023/05/02 00:50:04;;;;;;;7.80;2.80;;;;;;;;;;110139;1280;22153;-75
2023/05/02 00:52:32;;;;;;;6.70;2.50;;;;;;;;;;110410;1259;22088;-75
2023/05/02 00:55:02;;;;;;;7.30;2.80;;;;;;;;;;110079;1280;22097;-75
2023/05/02 00:57:30;;;;;;;7.70;3.10;;;;;;;;;;110219;1280;22123;-75
2023/05/02 00:59:58;;;;;;;7.60;2.70;;;;;;;;;;110229;1280;22179;-75
2023/05/02 01:02:48;;;;;;;7.20;2.80;;;;;;;;;;110329;1258;22116;-75
2023/05/02 01:05:26;;;;;;;7.20;3.00;;;;;;;;;;110016;1280;22105;-75
2023/05/02 01:08:00;;;;;;;6.20;2.80;;;;;;;;;;110079;1264;22093;-75
2023/05/02 01:10:41;;;;;;;8.40;2.60;;;;;;;;;;110076;1280;22761;-75
2023/05/02 01:13:12;;;;;;;7.90;3.10;;;;;;;;;;110293;1262;22107;-74
2023/05/02 01:15:41;;;;;;;8.50;3.40;;;;;;;;;;110162;1280;22139;-75
2023/05/02 01:18:11;;;;;;;7.30;3.00;;;;;;;;;;110166;1280;22887;-75
2023/05/02 01:20:42;;;;;;;6.70;3.30;;;;;;;;;;110139;1280;22113;-75
2023/05/02 01:23:35;;;;;;;8.10;3.50;;;;;;;;;;110368;1261;22206;-75
2023/05/02 01:26:09;;;;;;;8.90;3.30;;;;;;;;;;110018;1280;22127;-76
2023/05/02 01:28:55;;;;;;;8.30;3.30;;;;;;;;;;110122;1280;22002;-75
2023/05/02 01:31:24;;;;;;;7.50;3.40;;;;;;;;;;110065;1280;22873;-75
2023/05/02 01:33:52;;;;;;;6.70;3.30;;;;;;;;;;110520;1259;22214;-74
2023/05/02 01:36:22;;;;;;;6.60;3.00;;;;;;;;;;110112;1280;22093;-75
2023/05/02 01:38:53;;;;;;;7.10;2.90;;;;;;;;;;110053;1281;22832;-74
2023/05/02 01:41:21;;;;;;;8.10;3.20;;;;;;;;;;110163;1280;22711;-74
2023/05/02 01:43:50;;;;;;;7.50;2.80;;;;;;;;;;110336;1259;22385;-74
2023/05/02 01:46:19;;;;;;;7.00;2.90;;;;;;;;;;110092;1277;22828;-74
2023/05/02 01:48:51;;;;;;;9.00;3.00;;;;;;;;;;110101;1280;22293;-75
2023/05/02 01:51:21;;;;;;;7.10;2.90;;;;;;;;;;110004;1280;22212;-75
2023/05/02 01:53:50;;;;;;;6.00;2.60;;;;;;;;;;110173;1259;22621;-75
2023/05/02 01:56:20;;;;;;;7.20;2.90;;;;;;;;;;110146;1280;22312;-75
2023/05/02 01:58:50;;;;;;;7.40;3.20;;;;;;;;;;110133;1280;22808;-75
2023/05/02 02:01:20;;;;;;;6.80;3.10;;;;;;;;;;110107;1280;22089;-77
2023/05/02 02:03:48;;;;;;;6.50;3.00;;;;;;;;;;110081;1263;22188;-75
2023/05/02 02:06:19;;;;;;;6.90;3.20;;;;;;;;;;110034;1280;22096;-76
2023/05/02 02:08:48;;;;;;;6.10;3.00;;;;;;;;;;110118;1280;22124;-75
2023/05/02 02:11:23;;;;;;;7.40;3.30;;;;;;;;;;110100;1280;22087;-75
2023/05/02 02:14:00;;;;;;;6.50;3.30;;;;;;;;;;110272;1262;22563;-76
2023/05/02 02:16:30;;;;;;;8.50;3.50;;;;;;;;;;110187;1280;22144;-75
2023/05/02 02:19:04;;;;;;;8.10;3.30;;;;;;;;;;110103;1280;22741;-75
2023/05/02 02:21:35;;;;;;;7.30;3.40;;;;;;;;;;110145;1280;22143;-76
2023/05/02 02:24:06;;;;;;;10.30;3.40;;;;;;;;;;110268;1261;22119;-76
2023/05/02 02:26:36;;;;;;;7.30;3.30;;;;;;;;;;110094;1280;22223;-76
2023/05/02 02:29:06;;;;;;;8.00;3.30;;;;;;;;;;110036;1280;22210;-76
2023/05/02 02:31:35;;;;;;;9.60;4.20;;;;;;;;;;110086;1280;22449;-76
2023/05/02 02:34:03;;;;;;;10.80;4.10;;;;;;;;;;110239;1262;22154;-77
2023/05/02 02:43:40;;;;;;;8.50;3.70;;;;;;;;;;103770;1304;544978;-79
2023/05/02 02:46:13;;;;;;;9.80;3.90;;;;;;;;;;106078;1288;24259;-77
2023/05/02 02:48:40;;;;;;;7.50;3.80;;;;;;;;;;106048;1288;25240;-80
2023/05/02 02:51:11;;;;;;;7.80;4.00;;;;;;;;;;106021;1288;22538;-79
2023/05/02 02:53:41;;;;;;;8.10;4.30;;;;;;;;;;106035;1270;25241;-77
2023/05/02 02:56:14;;;;;;;9.40;4.40;;;;;;;;;;103962;1285;2832659;-80
2023/05/02 02:58:50;;;;;;;8.30;3.80;;;;;;;;;;106149;1285;24216;-78
2023/05/02 03:01:23;;;;;;;9.50;4.60;;;;;;;;;;105984;1285;22935;-78
2023/05/02 03:03:50;;;;;;;8.60;4.00;;;;;;;;;;106109;1276;22543;-77
2023/05/02 03:06:19;;;;;;;9.50;4.60;;;;;;;;;;106415;1285;22524;-79
2023/05/02 03:08:47;;;;;;;9.20;4.80;;;;;;;;;;106439;1285;25298;-78
2023/05/02 03:11:15;;;;;;;10.70;4.80;;;;;;;;;;106293;1285;22642;-79
2023/05/02 03:13:51;;;;;;;10.40;4.50;;;;;;;;;;106349;1276;24221;-78
2023/05/02 03:16:32;;;;;;;9.10;4.50;;;;;;;;;;106362;1285;24215;-76
2023/05/02 03:18:58;;;;;;;8.20;4.40;;;;;;;;;;106376;1285;22616;-76
2023/05/02 03:21:25;;;;;;;9.10;4.20;;;;;;;;;;106420;1282;22503;-79
2023/05/02 03:23:52;;;;;;;9.00;4.40;;;;;;;;;;106489;1273;22546;-82
2023/05/02 03:26:20;;;;;;;10.10;4.70;;;;;;;;;;106422;1282;25297;-79
2023/05/02 03:28:47;;;;;;;10.80;4.60;;;;;;;;;;106469;1282;22626;-76
2023/05/02 03:31:16;;;;;;;11.80;5.00;;;;;;;;;;106229;1260;24427;-79
2023/05/02 03:33:43;;;;;;;11.10;5.40;;;;;;;;;;106331;1282;22542;-77
2023/05/02 03:36:10;;;;;;;11.10;5.00;;;;;;;;;;107110;1275;24167;-79
2023/05/02 03:38:40;;;;;;;10.30;4.60;;;;;;;;;;106873;1275;22540;-76
2023/05/02 03:41:08;;;;;;;9.10;4.70;;;;;;;;;;107121;1275;25408;-76
2023/05/02 03:43:34;;;;;;;10.80;5.60;;;;;;;;;;107064;1257;22524;-82
2023/05/02 03:46:06;;;;;;;10.60;5.50;;;;;;;;;;107084;1275;22609;-78
2023/05/02 03:48:35;;;;;;;9.80;5.10;;;;;;;;;;107101;1275;22525;-77
2023/05/02 03:51:09;;;;;;;11.40;5.20;;;;;;;;;;107032;1256;22990;-79
2023/05/02 03:53:38;;;;;;;9.20;4.70;;;;;;;;;;107081;1253;22620;-79
2023/05/02 03:56:06;;;;;;;13.10;5.00;;;;;;;;;;106874;1275;22516;-76
2023/05/02 03:58:38;;;;;;;10.00;4.90;;;;;;;;;;107095;1275;24192;-79
2023/05/02 04:01:12;;;;;;;9.90;5.30;;;;;;;;;;107028;1272;24425;-76
2023/05/02 04:03:39;;;;;;;10.20;5.30;;;;;;;;;;106909;1275;23001;-76
2023/05/02 04:06:07;;;;;;;9.90;5.50;;;;;;;;;;106886;1267;24270;-77
2023/05/02 04:08:34;;;;;;;11.10;5.80;;;;;;;;;;107057;1276;26493;-80
2023/05/02 04:11:01;;;;;;;10.50;5.90;;;;;;;;;;106893;1276;24387;-82
2023/05/02 04:13:28;;;;;;;11.90;5.70;;;;;;;;;;106877;1275;22555;-77
2023/05/02 04:15:56;;;;;;;10.70;5.50;;;;;;;;;;106850;1269;25403;-78
2023/05/02 04:18:25;;;;;;;10.50;5.20;;;;;;;;;;106903;1276;25397;-75
2023/05/02 04:20:52;;;;;;;9.90;4.80;;;;;;;;;;106923;1276;25259;-75
2023/05/02 04:23:21;;;;;;;9.30;5.20;;;;;;;;;;106818;1276;25309;-78
2023/05/02 04:25:52;;;;;;;9.80;5.50;;;;;;;;;;106952;1267;24237;-78
2023/05/02 04:28:20;;;;;;;10.30;4.90;;;;;;;;;;106931;1276;22986;-79
2023/05/02 04:30:49;;;;;;;9.40;5.10;;;;;;;;;;107050;1276;22481;-81
2023/05/02 04:33:17;;;;;;;10.20;5.20;;;;;;;;;;106919;1276;25352;-74
2023/05/02 04:35:45;;;;;;;11.00;5.70;;;;;;;;;;106911;1260;22561;-78
2023/05/02 04:38:13;;;;;;;11.90;6.60;;;;;;;;;;106885;1276;22730;-82
2023/05/02 04:40:41;;;;;;;10.40;5.60;;;;;;;;;;106864;1276;25423;-79
2023/05/02 04:43:09;;;;;;;9.80;5.50;;;;;;;;;;106919;1276;22728;-77
2023/05/02 04:45:50;;;;;;;10.40;5.30;;;;;;;;;;106951;1276;22571;-79
2023/05/02 04:48:24;;;;;;;10.60;5.90;;;;;;;;;;106881;1276;25319;-76
2023/05/02 04:50:52;;;;;;;11.40;5.10;;;;;;;;;;107015;1276;23896;-80
2023/05/02 04:53:22;;;;;;;10.00;5.20;;;;;;;;;;106940;1273;25291;-79
2023/05/02 04:55:50;;;;;;;10.10;5.80;;;;;;;;;;107044;1257;25331;-79
2023/05/02 04:58:16;;;;;;;10.50;5.60;;;;;;;;;;106899;1275;22527;-76
2023/05/02 05:00:46;;;;;;;10.50;5.90;;;;;;;;;;106949;1276;22524;-78
2023/05/02 05:03:13;;;;;;;11.30;6.20;;;;;;;;;;106570;1276;26484;-79
2023/05/02 05:05:41;;;;;;;11.50;6.40;;;;;;;;;;106628;1259;25335;-77
2023/05/02 05:08:10;;;;;;;12.40;6.40;;;;;;;;;;106834;1276;25305;-80
2023/05/02 05:10:39;;;;;;;12.30;6.80;;;;;;;;;;106857;1276;25268;-77
2023/05/02 05:13:07;;;;;;;15.50;7.60;;;;;;;;;;106921;1276;25329;-80
2023/05/02 05:15:35;;;;;;;13.20;7.20;;;;;;;;;;106838;1276;22785;-76
2023/05/02 05:18:02;;;;;;;12.50;6.90;;;;;;;;;;106851;1276;24292;-74
2023/05/02 05:20:29;;;;;;;13.70;7.30;;;;;;;;;;106854;1276;25360;-79
2023/05/02 05:22:58;;;;;;;13.60;7.20;;;;;;;;;;106891;1276;26173;-76
2023/05/02 05:25:27;;;;;;;12.80;6.30;;;;;;;;;;106860;1254;25328;-76
2023/05/02 05:27:55;;;;;;;11.90;6.70;;;;;;;;;;106885;1276;22527;-76
2023/05/02 05:30:22;;;;;;;11.00;6.50;;;;;;;;;;106913;1276;24045;-79
2023/05/02 05:32:49;;;;;;;12.30;6.40;;;;;;;;;;106873;1276;23906;-80
2023/05/02 05:35:16;;;;;;;11.50;6.40;;;;;;;;;;106866;1276;23935;-77
2023/05/02 05:37:43;;;;;;;12.30;6.50;;;;;;;;;;106846;1276;22524;-82
2023/05/02 05:40:12;;;;;;;13.40;6.40;;;;;;;;;;106905;1276;22523;-82
2023/05/02 05:42:41;;;;;;;11.80;6.30;;;;;;;;;;106911;1276;25370;-80
2023/05/02 05:45:22;;;;;;;11.60;6.00;;;;;;;;;;106842;1276;25329;-79
2023/05/02 05:47:50;;;;;;;11.90;6.70;;;;;;;;;;106857;1258;25463;-80
2023/05/02 05:50:17;;;;;;;11.90;6.70;;;;;;;;;;106875;1276;25330;-76
2023/05/02 05:52:45;;;;;;;13.20;7.30;;;;;;;;;;106887;1276;24196;-76
2023/05/02 05:55:20;;;;;;;11.10;6.20;;;;;;;;;;106884;1276;25336;-79
2023/05/02 05:57:47;;;;;;;12.90;6.70;;;;;;;;;;106855;1257;25268;-77
2023/05/02 06:00:15;;;;;;;11.90;6.30;;;;;;;;;;106871;1265;25263;-75
2023/05/02 06:02:42;;;;;;;11.70;6.20;;;;;;;;;;106829;1276;22530;-82
2023/05/02 06:05:13;;;;;;;13.70;6.10;;;;;;;;;;106936;1276;24282;-81
2023/05/02 06:07:40;;;;;;;12.00;6.80;;;;;;;;;;106759;1261;22524;-77
2023/05/02 06:10:08;;;;;;;14.60;7.00;;;;;;;;;;106704;1276;22527;-77
2023/05/02 06:12:35;;;;;;;21.10;10.90;;;;;;;;;;106830;1276;22853;-75
2023/05/02 06:15:02;;;;;;;22.10;9.30;;;;;;;;;;106853;1276;22483;-81
2023/05/02 06:17:30;;;;;;;18.60;7.50;;;;;;;;;;106846;1258;23099;-76
2023/05/02 06:19:57;;;;;;;19.40;8.00;;;;;;;;;;106855;1276;22771;-76
2023/05/02 06:22:24;;;;;;;20.30;7.80;;;;;;;;;;106847;1276;22541;-81
2023/05/02 06:24:51;;;;;;;12.80;6.10;;;;;;;;;;106861;1276;22522;-82
2023/05/02 06:27:18;;;;;;;12.20;6.20;;;;;;;;;;106846;1261;22547;-79
2023/05/02 06:29:44;;;;;;;14.20;6.30;;;;;;;;;;106843;1276;25280;-79
2023/05/02 06:32:11;;;;;;;10.60;5.00;;;;;;;;;;106872;1276;22525;-79
2023/05/02 06:34:41;;;;;;;13.00;6.20;;;;;;;;;;106854;1276;22527;-78
2023/05/02 06:37:07;;;;;;;10.90;6.00;;;;;;;;;;106879;1254;25278;-75
2023/05/02 06:46:37;;;;;;;9.20;4.50;;;;;;;;;;103784;1302;544896;-75
2023/05/02 06:49:04;;;;;;;14.10;6.90;;;;;;;;;;106026;1288;25352;-79
2023/05/02 06:51:31;;;;;;;9.80;5.10;;;;;;;;;;105918;1279;25501;-78
2023/05/02 06:53:58;;;;;;;11.40;5.00;;;;;;;;;;106214;1288;24203;-82
2023/05/02 06:56:25;;;;;;;9.40;4.20;;;;;;;;;;106002;1288;22530;-81
2023/05/02 06:58:52;;;;;;;10.20;4.60;;;;;;;;;;106042;1288;24324;-77
2023/05/02 07:01:18;;;;;;;9.40;4.30;;;;;;;;;;104269;1285;2807978;-77
2023/05/02 07:03:46;;;;;;;9.70;4.90;;;;;;;;;;106253;1285;25457;-82
2023/05/02 07:06:13;;;;;;;8.40;4.50;;;;;;;;;;106179;1269;25269;-78
2023/05/02 07:08:42;;;;;;;10.20;5.10;;;;;;;;;;106384;1285;22546;-79
2023/05/02 07:11:09;;;;;;;10.40;4.60;;;;;;;;;;106273;1285;24362;-82
2023/05/02 07:13:36;;;;;;;10.40;4.80;;;;;;;;;;106203;1285;25254;-84
2023/05/02 07:16:06;;;;;;;10.20;5.40;;;;;;;;;;106313;1285;22533;-76
2023/05/02 07:18:35;;;;;;;10.50;4.50;;;;;;;;;;106079;1285;24237;-77
2023/05/02 07:21:02;;;;;;;9.40;4.30;;;;;;;;;;106095;1285;22545;-78
2023/05/02 07:23:29;;;;;;;10.70;5.50;;;;;;;;;;106184;1285;25325;-80
2023/05/02 07:26:06;;;;;;;9.40;4.90;;;;;;;;;;106374;1285;22530;-78
2023/05/02 07:28:33;;;;;;;10.50;4.60;;;;;;;;;;106130;1269;22542;-84
2023/05/02 07:31:00;;;;;;;12.00;4.80;;;;;;;;;;109938;1285;22820;-77
2023/05/02 07:33:27;;;;;;;10.10;4.80;;;;;;;;;;109857;1285;22135;-77
2023/05/02 07:35:54;;;;;;;10.10;4.80;;;;;;;;;;109793;1288;22131;-77
2023/05/02 07:38:21;;;;;;;11.00;5.00;;;;;;;;;;109933;1270;22713;-77
2023/05/02 07:40:47;;;;;;;11.20;5.00;;;;;;;;;;109766;1288;22165;-77
2023/05/02 07:43:15;;;;;;;10.70;4.60;;;;;;;;;;109763;1287;22858;-77
2023/05/02 07:45:41;;;;;;;10.70;4.40;;;;;;;;;;109798;1287;22097;-77
2023/05/02 07:48:08;;;;;;;11.50;4.90;;;;;;;;;;109942;1268;22168;-77
2023/05/02 07:50:35;;;;;;;8.10;4.30;;;;;;;;;;109764;1288;22159;-77
2023/05/02 07:53:02;;;;;;;11.00;5.50;;;;;;;;;;109660;1283;22140;-77
2023/05/02 07:55:32;;;;;;;13.00;5.30;;;;;;;;;;109802;1288;22110;-77
2023/05/02 07:58:02;;;;;;;9.80;5.00;;;;;;;;;;109865;1269;22141;-77
2023/05/02 08:00:29;;;;;;;11.10;4.80;;;;;;;;;;109768;1288;22121;-77
2023/05/02 08:02:56;;;;;;;10.80;5.10;;;;;;;;;;109755;1283;22135;-76
2023/05/02 08:05:23;;;;;;;10.80;4.80;;;;;;;;;;109671;1288;22592;-77
2023/05/02 08:07:51;;;;;;;9.90;4.40;;;;;;;;;;109836;1270;22139;-77
2023/05/02 08:10:17;;;;;;;10.60;4.60;;;;;;;;;;109806;1288;22059;-77
2023/05/02 08:12:44;;;;;;;9.50;4.90;;;;;;;;;;109821;1288;22094;-77
2023/05/02 08:15:14;;;;;;;10.00;5.30;;;;;;;;;;109771;1288;22249;-76
2023/05/02 08:17:41;;;;;;;9.40;4.90;;;;;;;;;;109719;1267;22124;-76
2023/05/02 08:20:08;;;;;;;12.20;5.30;;;;;;;;;;109654;1288;22124;-77
2023/05/02 08:22:35;;;;;;;10.10;5.40;;;;;;;;;;109771;1288;22127;-76
2023/05/02 08:25:02;;;;;;;8.90;5.10;;;;;;;;;;109817;1288;22124;-76
2023/05/02 08:27:29;;;;;;;9.60;5.30;;;;;;;;;;109790;1265;22866;-77
2023/05/02 08:29:56;;;;;;;12.90;5.70;;;;;;;;;;109653;1288;22193;-76
2023/05/02 08:32:23;;;;;;;9.90;5.10;;;;;;;;;;109806;1281;22267;-78
2023/05/02 08:34:49;;;;;;;11.20;5.00;;;;;;;;;;109818;1288;22192;-77
2023/05/02 08:37:17;;;;;;;11.20;4.90;;;;;;;;;;109697;1288;22187;-77
2023/05/02 08:39:43;;;;;;;12.50;5.20;;;;;;;;;;109744;1267;22165;-76
2023/05/02 08:42:10;;;;;;;10.60;5.30;;;;;;;;;;109688;1288;22118;-76
2023/05/02 08:44:37;;;;;;;12.30;5.60;;;;;;;;;;109696;1288;22167;-76
2023/05/02 08:47:05;;;;;;;10.40;4.80;;;;;;;;;;109712;1288;22144;-77
2023/05/02 08:49:33;;;;;;;10.80;5.60;;;;;;;;;;109714;1267;22529;-77
2023/05/02 08:52:01;;;;;;;12.70;5.50;;;;;;;;;;109670;1288;22267;-76
2023/05/02 08:54:28;;;;;;;12.00;5.90;;;;;;;;;;109718;1288;21981;-77
2023/05/02 08:56:55;;;;;;;10.80;5.70;;;;;;;;;;109682;1288;22127;-78
2023/05/02 08:59:22;;;;;;;11.10;6.40;;;;;;;;;;109702;1267;22413;-76
2023/05/02 09:01:51;;;;;;;12.40;5.30;;;;;;;;;;109792;1288;22124;-78
2023/05/02 09:04:22;;;;;;;9.40;5.00;;;;;;;;;;109677;1288;23223;-78
2023/05/02 09:06:49;;;;;;;8.80;5.40;;;;;;;;;;109706;1288;22760;-76
2023/05/02 09:09:16;;;;;;;11.60;6.00;;;;;;;;;;110114;1257;22172;-77
2023/05/02 09:11:45;;;;;;;9.80;5.60;;;;;;;;;;110128;1281;22120;-76
2023/05/02 09:14:15;;;;;;;12.90;5.20;;;;;;;;;;110079;1281;22116;-78
2023/05/02 09:16:42;;;;;;;9.00;5.30;;;;;;;;;;110092;1281;22217;-77
2023/05/02 09:19:09;;;;;;;10.60;6.00;;;;;;;;;;110090;1259;22202;-77
2023/05/02 09:21:40;;;;;;;10.10;5.40;;;;;;;;;;110091;1281;21782;-77
2023/05/02 09:24:15;;;;;;;11.00;6.10;;;;;;;;;;110056;1281;22133;-77
2023/05/02 09:26:42;;;;;;;10.40;5.80;;;;;;;;;;110007;1279;22130;-77
2023/05/02 09:29:09;;;;;;;9.30;4.80;;;;;;;;;;110099;1259;22195;-78
2023/05/02 09:31:37;;;;;;;10.30;4.90;;;;;;;;;;110115;1281;22155;-78
2023/05/02 09:34:07;;;;;;;9.60;4.80;;;;;;;;;;110124;1281;22121;-77
2023/05/02 09:36:44;;;;;;;10.00;5.40;;;;;;;;;;110115;1281;22148;-79
2023/05/02 09:39:12;;;;;;;10.20;5.30;;;;;;;;;;110168;1259;22191;-77
2023/05/02 09:41:42;;;;;;;12.00;5.70;;;;;;;;;;110132;1280;22167;-76
2023/05/02 09:44:13;;;;;;;11.20;5.30;;;;;;;;;;110128;1280;22128;-77
2023/05/02 09:46:41;;;;;;;10.60;5.30;;;;;;;;;;110106;1281;21893;-77
2023/05/02 09:49:11;;;;;;;10.10;4.90;;;;;;;;;;110109;1258;22165;-77
2023/05/02 09:51:38;;;;;;;9.80;4.90;;;;;;;;;;110106;1281;22109;-77
2023/05/02 09:54:05;;;;;;;9.80;5.20;;;;;;;;;;110105;1281;22314;-77
2023/05/02 09:56:51;;;;;;;10.50;5.30;;;;;;;;;;110079;1281;22110;-77
2023/05/02 09:59:17;;;;;;;11.30;4.90;;;;;;;;;;110418;1254;22353;-78
2023/05/02 10:01:44;;;;;;;8.60;4.70;;;;;;;;;;110277;1277;22323;-78
2023/05/02 10:04:15;;;;;;;10.40;5.20;;;;;;;;;;110397;1277;22119;-77
2023/05/02 10:06:42;;;;;;;10.80;4.70;;;;;;;;;;110440;1277;22932;-77
2023/05/02 10:09:10;;;;;;;10.20;5.30;;;;;;;;;;110391;1277;22173;-78
2023/05/02 10:11:43;;;;;;;9.70;5.20;;;;;;;;;;110784;1259;22931;-79
2023/05/02 10:14:11;;;;;;;12.60;5.10;;;;;;;;;;110373;1277;22833;-77
2023/05/02 10:16:42;;;;;;;10.20;5.20;;;;;;;;;;110487;1277;22765;-79
2023/05/02 10:19:11;;;;;;;11.50;5.20;;;;;;;;;;110451;1276;22184;-78
2023/05/02 10:21:39;;;;;;;11.50;5.00;;;;;;;;;;110658;1254;22287;-78
2023/05/02 10:24:06;;;;;;;8.80;4.70;;;;;;;;;;110434;1277;22211;-78
2023/05/02 10:26:33;;;;;;;8.80;4.20;;;;;;;;;;110458;1277;22766;-80
2023/05/02 10:29:09;;;;;;;8.70;4.10;;;;;;;;;;110569;1276;22111;-78
2023/05/02 10:31:41;;;;;;;8.80;4.20;;;;;;;;;;110657;1259;22803;-77
2023/05/02 10:34:10;;;;;;;8.80;4.10;;;;;;;;;;110415;1277;22329;-78
2023/05/02 10:36:36;;;;;;;9.90;4.60;;;;;;;;;;110445;1277;22096;-77
2023/05/02 10:39:04;;;;;;;9.60;4.70;;;;;;;;;;110352;1277;22094;-77
2023/05/02 10:41:32;;;;;;;8.90;4.50;;;;;;;;;;110527;1259;22858;-77
2023/05/02 10:44:09;;;;;;;9.20;4.80;;;;;;;;;;110423;1277;22132;-77
2023/05/02 10:46:40;;;;;;;8.60;4.70;;;;;;;;;;110404;1277;22106;-77
2023/05/02 10:49:09;;;;;;;9.10;4.80;;;;;;;;;;110368;1277;22174;-76
2023/05/02 10:51:40;;;;;;;9.00;5.00;;;;;;;;;;110526;1256;22766;-76
2023/05/02 10:54:16;;;;;;;8.50;4.80;;;;;;;;;;110362;1277;22140;-77
2023/05/02 10:57:08;;;;;;;11.60;5.20;;;;;;;;;;110420;1277;22151;-77
2023/05/02 10:59:38;;;;;;;9.70;5.30;;;;;;;;;;110429;1277;21987;-76
2023/05/02 11:02:31;;;;;;;9.50;5.10;;;;;;;;;;110475;1259;22187;-77
2023/05/02 11:05:04;;;;;;;9.80;5.70;;;;;;;;;;109958;1284;22163;-77
2023/05/02 11:07:32;;;;;;;10.30;5.50;;;;;;;;;;109898;1284;22164;-76
2023/05/02 11:10:17;;;;;;;9.70;4.50;;;;;;;;;;109864;1284;22213;-76
2023/05/02 11:12:46;;;;;;;11.20;5.30;;;;;;;;;;110152;1265;22214;-80
2023/05/02 11:15:25;;;;;;;9.60;5.80;;;;;;;;;;109888;1284;22757;-76
2023/05/02 11:18:00;;;;;;;9.00;4.80;;;;;;;;;;109936;1284;22240;-77
2023/05/02 11:20:27;;;;;;;10.30;5.30;;;;;;;;;;109940;1284;22135;-77
2023/05/02 11:23:14;;;;;;;9.20;4.90;;;;;;;;;;109996;1262;22159;-77
2023/05/02 11:25:42;;;;;;;9.70;5.30;;;;;;;;;;109953;1284;22375;-76
2023/05/02 11:28:28;;;;;;;11.20;5.60;;;;;;;;;;109832;1284;22172;-76
2023/05/02 11:30:55;;;;;;;12.80;5.60;;;;;;;;;;109942;1284;23592;-76
2023/05/02 11:33:22;;;;;;;10.10;6.00;;;;;;;;;;109819;1268;22422;-77
2023/05/02 11:35:49;;;;;;;8.90;5.00;;;;;;;;;;109861;1285;22168;-77
2023/05/02 11:38:17;;;;;;;8.90;5.30;;;;;;;;;;109926;1285;22328;-77
2023/05/02 11:40:54;;;;;;;8.90;5.30;;;;;;;;;;109905;1270;22205;-77
2023/05/02 11:43:24;;;;;;;9.80;5.90;;;;;;;;;;110483;1260;22346;-76
2023/05/02 11:45:52;;;;;;;10.40;5.40;;;;;;;;;;110318;1279;22748;-77
2023/05/02 11:48:21;;;;;;;9.80;5.10;;;;;;;;;;110178;1279;23176;-77
2023/05/02 11:50:49;;;;;;;9.60;5.00;;;;;;;;;;110385;1278;22243;-78
2023/05/02 11:53:22;;;;;;;8.90;5.00;;;;;;;;;;110482;1260;22175;-78
2023/05/02 11:55:49;;;;;;;10.00;5.60;;;;;;;;;;110220;1278;22129;-77
2023/05/02 11:58:18;;;;;;;9.20;5.00;;;;;;;;;;110291;1279;22316;-77
2023/05/02 12:00:46;;;;;;;12.10;5.60;;;;;;;;;;110174;1279;22392;-79
2023/05/02 12:03:24;;;;;;;8.80;4.90;;;;;;;;;;110506;1255;22148;-80
2023/05/02 12:05:52;;;;;;;11.10;5.30;;;;;;;;;;110301;1279;22099;-76
2023/05/02 12:08:20;;;;;;;9.50;4.90;;;;;;;;;;110278;1279;22828;-77
2023/05/02 12:10:47;;;;;;;9.20;4.80;;;;;;;;;;110290;1279;23040;-76
2023/05/02 12:13:14;;;;;;;8.30;4.60;;;;;;;;;;110291;1259;22157;-76
2023/05/02 12:15:41;;;;;;;9.50;5.30;;;;;;;;;;110309;1279;22168;-77
2023/05/02 12:18:09;;;;;;;9.50;5.20;;;;;;;;;;110301;1264;22131;-76
2023/05/02 12:20:37;;;;;;;10.30;5.70;;;;;;;;;;110298;1279;22176;-77
2023/05/02 12:23:14;;;;;;;10.10;5.90;;;;;;;;;;110295;1260;22793;-76
2023/05/02 12:25:41;;;;;;;10.70;5.10;;;;;;;;;;110208;1279;22287;-76
2023/05/02 12:28:09;;;;;;;9.40;5.30;;;;;;;;;;110303;1267;22107;-77
2023/05/02 12:30:40;;;;;;;10.10;5.00;;;;;;;;;;110346;1278;22253;-77
2023/05/02 12:33:08;;;;;;;11.30;6.20;;;;;;;;;;110206;1260;22155;-76
2023/05/02 12:35:35;;;;;;;9.30;4.70;;;;;;;;;;110178;1279;22122;-76
2023/05/02 12:38:16;;;;;;;7.70;3.80;;;;;;;;;;110223;1279;22159;-78
2023/05/02 12:40:47;;;;;;;7.50;4.00;;;;;;;;;;110190;1279;22119;-77
2023/05/02 12:43:15;;;;;;;7.10;3.80;;;;;;;;;;110268;1258;21703;-77
2023/05/02 12:45:42;;;;;;;8.70;3.90;;;;;;;;;;110205;1279;22109;-77
2023/05/02 12:48:20;;;;;;;8.80;3.50;;;;;;;;;;110192;1280;22882;-77
2023/05/02 12:50:47;;;;;;;10.50;4.40;;;;;;;;;;110217;1264;23070;-76
2023/05/02 12:53:15;;;;;;;8.60;4.00;;;;;;;;;;110276;1260;22847;-77
2023/05/02 12:55:43;;;;;;;12.00;4.20;;;;;;;;;;110238;1279;22167;-77
2023/05/02 12:58:14;;;;;;;8.40;4.00;;;;;;;;;;110200;1279;22729;-77
2023/05/02 13:00:41;;;;;;;8.10;4.00;;;;;;;;;;110221;1279;22226;-77
2023/05/02 13:03:09;;;;;;;7.90;3.50;;;;;;;;;;110174;1256;22627;-77
2023/05/02 13:05:37;;;;;;;8.80;3.50;;;;;;;;;;110117;1279;22962;-77
2023/05/02 13:08:05;;;;;;;7.20;3.50;;;;;;;;;;110197;1279;21851;-77
2023/05/02 13:10:33;;;;;;;7.10;3.60;;;;;;;;;;110200;1280;22094;-77
2023/05/02 13:13:01;;;;;;;10.00;3.80;;;;;;;;;;110214;1256;22441;-77
2023/05/02 13:15:28;;;;;;;7.90;3.60;;;;;;;;;;110119;1279;22161;-77
2023/05/02 13:17:56;;;;;;;6.90;3.30;;;;;;;;;;110213;1279;22081;-77
2023/05/02 13:20:24;;;;;;;7.30;3.70;;;;;;;;;;110215;1279;22175;-77
2023/05/02 13:22:52;;;;;;;7.90;3.60;;;;;;;;;;110233;1279;22093;-77
2023/05/02 13:25:20;;;;;;;8.30;2.90;;;;;;;;;;110257;1260;22113;-76
2023/05/02 13:27:48;;;;;;;8.80;3.10;;;;;;;;;;110215;1279;22114;-76
2023/05/02 13:30:16;;;;;;;7.00;3.30;;;;;;;;;;110196;1279;22086;-77
2023/05/02 13:32:44;;;;;;;8.10;2.70;;;;;;;;;;110209;1279;22099;-77
2023/05/02 13:35:14;;;;;;;7.50;3.10;;;;;;;;;;110403;1260;22220;-77
2023/05/02 13:37:43;;;;;;;6.60;3.10;;;;;;;;;;110133;1280;22311;-77
2023/05/02 13:40:13;;;;;;;7.00;3.10;;;;;;;;;;110108;1280;22823;-77
2023/05/02 13:42:42;;;;;;;9.40;3.00;;;;;;;;;;110176;1280;23258;-77
2023/05/02 13:45:11;;;;;;;8.10;3.20;;;;;;;;;;110319;1262;22579;-77
2023/05/02 13:47:40;;;;;;;5.90;2.60;;;;;;;;;;110223;1275;22127;-78
2023/05/02 13:50:10;;;;;;;8.30;3.30;;;;;;;;;;110119;1280;22057;-78
2023/05/02 13:52:40;;;;;;;7.40;3.30;;;;;;;;;;110193;1280;22734;-77
2023/05/02 13:55:10;;;;;;;6.50;3.00;;;;;;;;;;110405;1260;22775;-77
2023/05/02 13:57:42;;;;;;;6.30;3.10;;;;;;;;;;110121;1280;22918;-78
2023/05/02 14:00:15;;;;;;;11.30;2.90;;;;;;;;;;110087;1280;23127;-78
2023/05/02 14:02:42;;;;;;;5.70;2.90;;;;;;;;;;110195;1280;22097;-77
2023/05/02 14:05:11;;;;;;;6.30;2.90;;;;;;;;;;110111;1262;22138;-78
2023/05/02 14:07:44;;;;;;;6.50;2.90;;;;;;;;;;110125;1275;22095;-78
2023/05/02 14:10:15;;;;;;;7.10;2.90;;;;;;;;;;110112;1280;22841;-78
2023/05/02 14:12:45;;;;;;;6.40;3.10;;;;;;;;;;110196;1280;22196;-78
2023/05/02 14:15:14;;;;;;;8.00;2.90;;;;;;;;;;110095;1262;22103;-78
2023/05/02 14:17:43;;;;;;;7.60;3.00;;;;;;;;;;110100;1280;22123;-78
2023/05/02 14:20:12;;;;;;;6.20;3.00;;;;;;;;;;110082;1280;22856;-79
2023/05/02 14:22:42;;;;;;;7.40;3.00;;;;;;;;;;110179;1278;22092;-77
2023/05/02 14:25:11;;;;;;;6.50;2.90;;;;;;;;;;110201;1261;22109;-78
2023/05/02 14:27:41;;;;;;;5.90;2.70;;;;;;;;;;110220;1280;22753;-78
2023/05/02 14:30:10;;;;;;;8.20;3.20;;;;;;;;;;110095;1280;22754;-78
2023/05/02 14:32:39;;;;;;;10.30;4.60;;;;;;;;;;110049;1280;22880;-79
2023/05/02 14:45:03;;;;;;;9.20;3.60;;;;;;;;;;103632;1294;548207;-81
2023/05/02 14:47:30;;;;;;;7.80;3.30;;;;;;;;;;106170;1282;25243;-81
2023/05/02 14:49:56;;;;;;;8.30;4.00;;;;;;;;;;109720;1287;22856;-80
2023/05/02 14:52:24;;;;;;;7.60;3.10;;;;;;;;;;109651;1283;22542;-78
2023/05/02 14:54:50;;;;;;;8.30;3.20;;;;;;;;;;109641;1268;21755;-78
2023/05/02 14:57:17;;;;;;;5.90;2.60;;;;;;;;;;107557;1286;2765796;-79
2023/05/02 14:59:43;;;;;;;6.10;2.60;;;;;;;;;;109882;1278;22173;-79